createdAt,value
2022-11-15T00:02:17.465Z,7.80
2022-11-15T00:05:04.980Z,7.90
2022-11-15T00:07:55.511Z,7.90
2022-11-15T00:10:41.423Z,7.90
2022-11-15T00:13:26.605Z,7.80
2022-11-15T00:16:14.336Z,7.80
2022-11-15T00:18:59.429Z,7.80
2022-11-15T00:21:44.621Z,7.80
2022-11-15T00:24:29.692Z,7.80
2022-11-15T00:27:15.027Z,7.80
2022-11-15T00:30:00.132Z,7.80
2022-11-15T00:32:45.324Z,7.70
2022-11-15T00:35:32.011Z,7.70
2022-11-15T00:38:17.186Z,7.70
2022-11-15T00:41:08.854Z,7.80
2022-11-15T00:43:55.072Z,7.80
2022-11-15T00:46:40.101Z,7.70
2022-11-15T00:49:25.316Z,7.70
2022-11-15T00:52:10.463Z,7.70
2022-11-15T00:54:58.549Z,7.70
2022-11-15T00:57:46.203Z,7.70
2022-11-15T01:00:31.401Z,7.70
2022-11-15T01:03:19.097Z,7.70
2022-11-15T01:06:04.625Z,7.70
2022-11-15T01:08:52.178Z,7.60
2022-11-15T01:11:37.341Z,7.60
2022-11-15T01:14:25.386Z,7.60
2022-11-15T01:17:13.635Z,7.60
2022-11-15T01:19:58.781Z,7.60
2022-11-15T01:22:44.099Z,7.60
2022-11-15T01:25:29.268Z,7.60
2022-11-15T01:28:14.681Z,7.60
2022-11-15T01:31:04.130Z,7.50
2022-11-15T01:33:49.919Z,7.50
2022-11-15T01:36:35.347Z,7.50
2022-11-15T01:39:20.407Z,7.50
2022-11-15T01:42:05.616Z,7.50
2022-11-15T01:44:51.822Z,7.50
2022-11-15T01:47:39.604Z,7.50
2022-11-15T01:50:32.182Z,7.50
2022-11-15T01:53:20.299Z,7.50
2022-11-15T01:56:06.980Z,7.40
2022-11-15T01:58:52.729Z,7.40
2022-11-15T02:01:38.666Z,7.40
2022-11-15T02:04:28.693Z,7.40
2022-11-15T02:07:21.035Z,7.40
2022-11-15T02:10:14.054Z,7.40
2022-11-15T02:12:59.841Z,7.40
2022-11-15T02:15:51.612Z,7.30
2022-11-15T02:18:39.720Z,7.30
2022-11-15T02:21:24.868Z,7.30
2022-11-15T02:24:23.156Z,7.30
2022-11-15T02:27:17.633Z,7.30
2022-11-15T02:30:02.835Z,7.30
2022-11-15T02:33:09.078Z,7.30
2022-11-15T02:36:01.679Z,7.20
2022-11-15T02:38:50.136Z,7.30
2022-11-15T02:41:40.759Z,7.30
2022-11-15T02:44:30.018Z,7.30
2022-11-15T02:47:17.612Z,7.30
2022-11-15T02:50:09.867Z,7.30
2022-11-15T02:52:56.155Z,7.30
2022-11-15T02:55:46.716Z,7.40
2022-11-15T02:58:35.245Z,7.40
2022-11-15T03:01:41.161Z,7.40
2022-11-15T03:04:29.388Z,7.30
2022-11-15T03:07:20.276Z,7.30
2022-11-15T03:10:07.592Z,7.30
2022-11-15T03:12:57.185Z,7.30
2022-11-15T03:15:49.548Z,7.30
2022-11-15T03:18:36.485Z,7.30
2022-11-15T03:21:22.717Z,7.30
2022-11-15T03:24:08.908Z,7.30
2022-11-15T03:26:55.929Z,7.20
2022-11-15T03:29:44.108Z,7.20
2022-11-15T03:32:31.494Z,7.20
2022-11-15T03:35:21.813Z,7.20
2022-11-15T03:38:24.463Z,7.10
2022-11-15T03:41:16.032Z,7.10
2022-11-15T03:44:06.166Z,7.10
2022-11-15T03:46:57.621Z,7.10
2022-11-15T03:49:47.823Z,7.10
2022-11-15T03:52:34.388Z,7.10
2022-11-15T03:55:23.237Z,7.10
2022-11-15T03:58:08.416Z,7.10
2022-11-15T04:01:00.313Z,7.10
2022-11-15T04:03:46.382Z,7.10
2022-11-15T04:06:31.820Z,7.10
2022-11-15T04:09:19.350Z,7.10
2022-11-15T04:12:04.649Z,7.10
2022-11-15T04:15:08.070Z,7.00
2022-11-15T04:17:56.840Z,7.00
2022-11-15T04:21:00.678Z,7.10
2022-11-15T04:24:04.765Z,7.00
2022-11-15T04:26:50.656Z,7.00
2022-11-15T04:29:36.042Z,7.00
2022-11-15T04:32:46.070Z,7.00
2022-11-15T04:35:31.323Z,7.00
2022-11-15T04:38:16.514Z,7.00
2022-11-15T04:44:55.540Z,7.00
2022-11-15T04:47:40.782Z,7.00
2022-11-15T04:50:25.852Z,7.00
2022-11-15T04:53:11.039Z,7.00
2022-11-15T04:55:58.622Z,7.00
2022-11-15T04:58:46.534Z,7.00
2022-11-15T05:01:32.266Z,7.00
2022-11-15T05:04:20.554Z,7.00
2022-11-15T05:07:05.724Z,7.00
2022-11-15T05:09:51.279Z,7.00
2022-11-15T05:12:36.648Z,7.00
2022-11-15T05:15:22.005Z,7.00
2022-11-15T05:18:07.206Z,7.00
2022-11-15T05:20:54.910Z,7.00
2022-11-15T05:23:42.475Z,7.00
2022-11-15T05:26:27.780Z,6.90
2022-11-15T05:29:12.922Z,6.90
2022-11-15T05:31:58.121Z,6.90
2022-11-15T05:34:46.179Z,6.90
2022-11-15T05:37:31.373Z,6.90
2022-11-15T05:40:16.859Z,7.00
2022-11-15T05:43:03.016Z,7.00
2022-11-15T05:45:48.324Z,7.00
2022-11-15T05:48:36.854Z,7.00
2022-11-15T05:51:25.042Z,7.00
2022-11-15T05:54:10.980Z,7.00
2022-11-15T05:56:56.773Z,7.00
2022-11-15T05:59:44.591Z,7.00
2022-11-15T06:02:29.998Z,7.00
2022-11-15T06:05:15.421Z,7.10
2022-11-15T06:08:00.550Z,7.00
2022-11-15T06:10:45.862Z,7.10
2022-11-15T06:13:31.247Z,7.00
2022-11-15T06:16:17.176Z,7.00
2022-11-15T06:19:03.172Z,7.00
2022-11-15T06:21:48.313Z,7.10
2022-11-15T06:24:33.580Z,7.10
2022-11-15T06:27:19.002Z,7.10
2022-11-15T06:30:04.356Z,7.10
2022-11-15T06:32:49.916Z,7.10
2022-11-15T06:35:35.469Z,7.10
2022-11-15T06:38:20.929Z,7.10
2022-11-15T06:41:07.348Z,7.10
2022-11-15T06:43:52.953Z,7.10
2022-11-15T06:46:38.248Z,7.00
2022-11-15T06:49:26.065Z,7.00
2022-11-15T06:52:11.951Z,7.00
2022-11-15T06:54:57.080Z,7.00
2022-11-15T06:57:52.855Z,7.00
2022-11-15T07:00:38.262Z,7.00
2022-11-15T07:03:26.262Z,7.10
2022-11-15T07:06:11.638Z,7.10
2022-11-15T07:08:56.791Z,7.10
2022-11-15T07:11:42.142Z,7.10
2022-11-15T07:14:27.139Z,7.10
2022-11-15T07:17:12.366Z,7.10
2022-11-15T07:19:57.551Z,7.10
2022-11-15T07:22:42.993Z,7.10
2022-11-15T07:25:28.513Z,7.20
2022-11-15T07:28:14.061Z,7.20
2022-11-15T07:31:02.470Z,7.20
2022-11-15T07:33:50.158Z,7.20
2022-11-15T07:36:35.161Z,7.20
2022-11-15T07:39:20.478Z,7.30
2022-11-15T07:42:24.626Z,7.30
2022-11-15T07:49:13.011Z,7.40
2022-11-15T07:51:58.036Z,7.40
2022-11-15T07:54:43.152Z,7.50
2022-11-15T07:57:28.441Z,7.50
2022-11-15T08:00:14.027Z,7.50
2022-11-15T08:03:12.591Z,7.50
2022-11-15T08:05:57.737Z,7.50
2022-11-15T08:08:44.759Z,7.60
2022-11-15T08:11:32.239Z,7.60
2022-11-15T08:14:17.931Z,7.60
2022-11-15T08:17:03.068Z,7.70
2022-11-15T08:19:50.689Z,7.70
2022-11-15T08:22:35.971Z,7.70
2022-11-15T08:25:23.660Z,7.80
2022-11-15T08:28:11.350Z,7.80
2022-11-15T08:30:56.787Z,7.80
2022-11-15T08:33:42.080Z,7.80
2022-11-15T08:36:29.741Z,7.80
2022-11-15T08:39:17.900Z,7.90
2022-11-15T08:42:03.038Z,7.90
2022-11-15T08:44:48.109Z,8.00
2022-11-15T08:47:33.680Z,8.00
2022-11-15T08:50:21.460Z,8.10
2022-11-15T08:53:07.680Z,8.10
2022-11-15T08:55:55.480Z,8.20
2022-11-15T08:58:40.875Z,8.30
2022-11-15T09:01:26.310Z,8.30
2022-11-15T09:04:14.470Z,8.40
2022-11-15T09:07:02.098Z,8.40
2022-11-15T09:09:47.334Z,8.50
2022-11-15T09:12:32.827Z,8.50
2022-11-15T09:15:18.396Z,8.60
2022-11-15T09:18:03.891Z,8.70
2022-11-15T09:20:49.198Z,8.70
2022-11-15T09:23:34.338Z,8.80
2022-11-15T09:26:21.970Z,8.80
2022-11-15T09:29:07.066Z,8.90
2022-11-15T09:31:55.658Z,8.90
2022-11-15T09:34:41.096Z,9.00
2022-11-15T09:37:26.283Z,9.10
2022-11-15T09:40:17.419Z,9.10
2022-11-15T09:43:16.007Z,9.20
2022-11-15T09:46:09.989Z,9.20
2022-11-15T09:48:57.965Z,9.20
2022-11-15T09:51:52.771Z,9.20
2022-11-15T09:57:28.374Z,9.30
2022-11-15T10:03:03.380Z,9.40
2022-11-15T10:05:30.873Z,9.40
2022-11-15T10:08:04.505Z,9.40
2022-11-15T10:10:31.308Z,9.50
2022-11-15T10:13:00.942Z,9.50
2022-11-15T10:15:27.839Z,9.50
2022-11-15T10:18:06.910Z,9.60
2022-11-15T10:20:42.757Z,9.60
2022-11-15T10:23:12.599Z,9.60
2022-11-15T10:25:41.483Z,9.70
2022-11-15T10:28:13.791Z,9.70
2022-11-15T10:30:42.034Z,9.70
2022-11-15T10:33:32.138Z,9.80
2022-11-15T10:36:14.164Z,9.80
2022-11-15T10:39:01.218Z,9.90
2022-11-15T10:41:27.933Z,9.80
2022-11-15T10:44:13.122Z,9.90
2022-11-15T10:46:48.357Z,9.90
2022-11-15T10:49:21.359Z,9.90
2022-11-15T10:51:50.055Z,10.00
2022-11-15T10:54:35.751Z,10.00
2022-11-15T10:57:06.784Z,10.00
2022-11-15T10:59:39.152Z,10.10
2022-11-15T11:02:24.600Z,10.10
2022-11-15T11:04:52.102Z,10.10
2022-11-15T11:07:23.410Z,10.10
2022-11-15T11:09:58.223Z,10.20
2022-11-15T11:12:34.658Z,10.20
2022-11-15T11:15:12.867Z,10.30
2022-11-15T11:17:42.603Z,10.40
2022-11-15T11:20:24.286Z,10.50
2022-11-15T11:23:05.145Z,10.50
2022-11-15T11:25:47.985Z,10.60
2022-11-15T11:28:38.921Z,10.60
2022-11-15T11:31:37.035Z,10.70
2022-11-15T11:34:39.584Z,10.70
2022-11-15T11:37:24.219Z,10.70
2022-11-15T11:40:16.018Z,10.70
2022-11-15T11:42:55.051Z,10.70
2022-11-15T11:45:37.070Z,10.70
2022-11-15T11:48:14.778Z,10.80
2022-11-15T11:50:47.754Z,10.80
2022-11-15T11:53:40.811Z,10.80
2022-11-15T11:56:27.001Z,10.90
2022-11-15T11:58:56.944Z,10.90
2022-11-15T12:01:31.148Z,10.90
2022-11-15T12:04:14.720Z,10.90
2022-11-15T12:07:22.708Z,10.90
2022-11-15T12:10:34.003Z,10.90
2022-11-15T12:13:11.232Z,10.90
2022-11-15T12:15:53.822Z,11.00
2022-11-15T12:18:20.724Z,11.00
2022-11-15T12:21:17.044Z,11.00
2022-11-15T12:23:50.294Z,11.00
2022-11-15T12:26:51.945Z,11.10
2022-11-15T12:29:48.800Z,11.10
2022-11-15T12:32:50.750Z,11.10
2022-11-15T12:35:27.810Z,11.10
2022-11-15T12:37:57.885Z,11.10
2022-11-15T12:40:34.029Z,11.10
2022-11-15T12:43:16.290Z,11.20
2022-11-15T12:45:46.784Z,11.30
2022-11-15T12:48:18.987Z,11.30
2022-11-15T12:51:04.824Z,11.30
2022-11-15T12:53:35.827Z,11.40
2022-11-15T12:56:05.459Z,11.40
2022-11-15T12:58:59.894Z,11.40
2022-11-15T13:01:38.808Z,11.40
2022-11-15T13:04:20.814Z,11.40
2022-11-15T13:06:50.525Z,11.40
2022-11-15T13:09:36.100Z,11.40
2022-11-15T13:12:22.636Z,11.40
2022-11-15T13:14:55.645Z,11.40
2022-11-15T13:17:38.606Z,11.50
2022-11-15T13:20:08.470Z,11.50
2022-11-15T13:22:57.243Z,11.50
2022-11-15T13:25:48.942Z,11.50
2022-11-15T13:28:15.879Z,11.50
2022-11-15T13:30:55.245Z,11.50
2022-11-15T13:33:36.177Z,11.50
2022-11-15T13:36:28.366Z,11.50
2022-11-15T13:38:56.744Z,11.50
2022-11-15T13:41:26.930Z,11.50
2022-11-15T13:43:58.443Z,11.50
2022-11-15T13:46:36.047Z,11.50
2022-11-15T13:49:02.905Z,11.60
2022-11-15T13:51:39.031Z,11.60
2022-11-15T13:54:36.206Z,11.60
2022-11-15T13:57:13.024Z,11.60
2022-11-15T14:00:02.116Z,11.60
2022-11-15T14:02:41.054Z,11.60
2022-11-15T14:05:22.710Z,11.50
2022-11-15T14:08:20.407Z,11.50
2022-11-15T14:10:47.294Z,11.50
2022-11-15T14:13:43.517Z,11.50
2022-11-15T14:16:14.468Z,11.50
2022-11-15T14:18:50.347Z,11.50
2022-11-15T14:21:18.372Z,11.50
2022-11-15T14:23:47.921Z,11.50
2022-11-15T14:26:35.734Z,11.50
2022-11-15T14:29:28.849Z,11.50
2022-11-15T14:32:17.785Z,11.50
2022-11-15T14:34:44.998Z,11.50
2022-11-15T14:37:33.980Z,11.50
2022-11-15T14:40:01.311Z,11.50
2022-11-15T14:42:30.444Z,11.50
2022-11-15T14:44:57.359Z,11.50
2022-11-15T14:47:24.307Z,11.50
2022-11-15T14:49:51.229Z,11.40
2022-11-15T14:52:28.729Z,11.40
2022-11-15T14:55:00.150Z,11.40
2022-11-15T14:57:27.026Z,11.40
2022-11-15T14:59:54.218Z,11.40
2022-11-15T15:02:29.417Z,11.40
2022-11-15T15:04:56.318Z,11.30
2022-11-15T15:07:23.294Z,11.30
2022-11-15T15:09:50.254Z,11.40
2022-11-15T15:12:22.265Z,11.30
2022-11-15T15:14:51.031Z,11.30
2022-11-15T15:17:18.510Z,11.30
2022-11-15T15:19:45.390Z,11.30
2022-11-15T15:22:16.516Z,11.20
2022-11-15T15:24:46.501Z,11.20
2022-11-15T15:27:14.749Z,11.20
2022-11-15T15:29:41.893Z,11.20
2022-11-15T15:32:14.411Z,11.20
2022-11-15T15:34:43.727Z,11.10
2022-11-15T15:37:23.679Z,11.10
2022-11-15T15:39:55.169Z,11.10
2022-11-15T15:42:24.383Z,11.10
2022-11-15T15:44:51.715Z,11.10
2022-11-15T15:47:21.916Z,11.10
2022-11-15T15:49:50.195Z,11.10
2022-11-15T15:52:20.304Z,11.10
2022-11-15T15:54:49.624Z,11.10
2022-11-15T15:57:16.602Z,11.10
2022-11-15T15:59:48.060Z,11.10
2022-11-15T16:02:15.218Z,11.00
2022-11-15T16:04:42.133Z,11.00
2022-11-15T16:07:18.566Z,11.00
2022-11-15T16:10:04.144Z,11.00
2022-11-15T16:12:35.294Z,10.90
2022-11-15T16:15:04.609Z,10.90
2022-11-15T16:17:39.284Z,10.90
2022-11-15T16:20:06.993Z,10.90
2022-11-15T16:22:36.314Z,10.90
2022-11-15T16:25:03.225Z,10.90
2022-11-15T16:27:30.151Z,10.90
2022-11-15T16:29:57.010Z,10.90
2022-11-15T16:32:26.408Z,10.90
2022-11-15T16:34:53.320Z,10.90
2022-11-15T16:37:26.848Z,10.90
2022-11-15T16:39:58.412Z,10.90
2022-11-15T16:42:27.703Z,10.80
2022-11-15T16:44:54.501Z,10.90
2022-11-15T16:47:21.843Z,10.90
2022-11-15T16:49:48.947Z,10.90
2022-11-15T16:52:25.066Z,10.80
2022-11-15T16:54:52.107Z,10.80
2022-11-15T16:57:19.011Z,10.80
2022-11-15T16:59:55.577Z,10.80
2022-11-15T17:02:22.774Z,10.80
2022-11-15T17:04:57.351Z,10.80
2022-11-15T17:07:29.337Z,10.80
2022-11-15T17:09:59.804Z,10.80
2022-11-15T17:12:33.101Z,10.70
2022-11-15T17:15:02.440Z,10.70
2022-11-15T17:17:34.154Z,10.70
2022-11-15T17:20:05.333Z,10.60
2022-11-15T17:22:34.596Z,10.60
2022-11-15T17:25:02.205Z,10.50
2022-11-15T17:27:32.799Z,10.50
2022-11-15T17:29:59.937Z,10.50
2022-11-15T17:32:30.109Z,10.40
2022-11-15T17:35:00.486Z,10.40
2022-11-15T17:37:30.318Z,10.40
2022-11-15T17:40:00.247Z,10.40
2022-11-15T17:42:27.797Z,10.40
2022-11-15T17:44:54.876Z,10.30
2022-11-15T17:47:24.109Z,10.30
2022-11-15T17:49:53.132Z,10.30
2022-11-15T17:52:19.977Z,10.30
2022-11-15T17:54:46.956Z,10.30
2022-11-15T17:57:13.930Z,10.20
2022-11-15T17:59:40.784Z,10.20
2022-11-15T18:02:09.233Z,10.20
2022-11-15T18:04:38.458Z,10.10
2022-11-15T18:07:05.465Z,10.10
2022-11-15T18:09:32.462Z,10.10
2022-11-15T18:11:59.304Z,10.00
2022-11-15T18:14:26.634Z,10.00
2022-11-15T18:16:54.974Z,9.90
2022-11-15T18:19:22.009Z,9.90
2022-11-15T18:22:01.367Z,9.90
2022-11-15T18:24:29.699Z,9.80
2022-11-15T18:26:57.132Z,9.80
2022-11-15T18:29:24.776Z,9.80
2022-11-15T18:31:55.542Z,9.80
2022-11-15T18:34:23.488Z,9.70
2022-11-15T18:36:53.604Z,9.70
2022-11-15T18:39:20.385Z,9.70
2022-11-15T18:41:49.290Z,9.60
2022-11-15T18:44:16.462Z,9.60
2022-11-15T18:46:45.015Z,9.60
2022-11-15T18:49:14.071Z,9.50
2022-11-15T18:51:44.091Z,9.50
2022-11-15T18:54:13.094Z,9.50
2022-11-15T18:56:40.580Z,9.50
2022-11-15T18:59:08.775Z,9.50
2022-11-15T19:01:40.806Z,9.40
2022-11-15T19:04:13.403Z,9.40
2022-11-15T19:06:42.983Z,9.40
2022-11-15T19:09:12.078Z,9.40
2022-11-15T19:11:42.072Z,9.40
2022-11-15T19:14:14.900Z,9.40
2022-11-15T19:16:44.867Z,9.30
2022-11-15T19:19:17.993Z,9.30
2022-11-15T19:21:45.385Z,9.30
2022-11-15T19:24:12.361Z,9.30
2022-11-15T19:26:42.610Z,9.30
2022-11-15T19:29:10.507Z,9.30
2022-11-15T19:31:38.149Z,9.20
2022-11-15T19:34:06.261Z,9.20
2022-11-15T19:36:37.472Z,9.10
2022-11-15T19:39:10.229Z,9.00
2022-11-15T19:41:38.629Z,9.00
2022-11-15T19:44:09.001Z,8.90
2022-11-15T19:46:37.601Z,8.90
2022-11-15T19:49:11.022Z,8.80
2022-11-15T19:51:42.637Z,8.80
2022-11-15T19:54:10.581Z,8.80
2022-11-15T19:56:39.833Z,8.80
2022-11-15T19:59:07.560Z,8.80
2022-11-15T20:01:37.919Z,8.80
2022-11-15T20:04:05.635Z,8.80
2022-11-15T20:06:41.030Z,8.80
2022-11-15T20:09:08.766Z,8.90
2022-11-15T20:11:37.929Z,8.80
2022-11-15T20:14:06.523Z,8.70
2022-11-15T20:16:33.617Z,8.70
2022-11-15T20:19:00.666Z,8.60
2022-11-15T20:21:27.712Z,8.70
2022-11-15T20:23:57.188Z,8.70
2022-11-15T20:26:24.345Z,8.60
2022-11-15T20:28:51.312Z,8.60
2022-11-15T20:31:18.253Z,8.60
2022-11-15T20:33:47.942Z,8.70
2022-11-15T20:36:17.195Z,8.60
2022-11-15T20:38:46.363Z,8.70
2022-11-15T20:41:14.242Z,8.70
2022-11-15T20:43:43.343Z,8.60
2022-11-15T20:46:11.750Z,8.60
2022-11-15T20:48:43.771Z,8.60
2022-11-15T20:51:16.433Z,8.60
2022-11-15T20:53:44.981Z,8.50
2022-11-15T20:56:16.937Z,8.60
2022-11-15T20:58:45.861Z,8.60
2022-11-15T21:01:19.824Z,8.60
2022-11-15T21:03:49.191Z,8.60
2022-11-15T21:06:20.920Z,8.60
2022-11-15T21:09:10.277Z,8.60
2022-11-15T21:11:56.507Z,8.50
2022-11-15T21:14:25.699Z,8.40
2022-11-15T21:16:56.271Z,8.40
2022-11-15T21:19:34.046Z,8.40
2022-11-15T21:22:09.291Z,8.30
2022-11-15T21:24:38.632Z,8.30
2022-11-15T21:27:10.499Z,8.30
2022-11-15T21:29:46.064Z,8.30
2022-11-15T21:32:19.229Z,8.20
2022-11-15T21:34:46.937Z,8.30
2022-11-15T21:37:15.946Z,8.30
2022-11-15T21:39:45.063Z,8.30
2022-11-15T21:42:11.926Z,8.30
2022-11-15T21:44:43.587Z,8.40
2022-11-15T21:47:12.970Z,8.40
2022-11-15T21:49:44.417Z,8.40
2022-11-15T21:52:11.268Z,8.40
2022-11-15T21:54:41.424Z,8.40
2022-11-15T21:57:11.143Z,8.40
2022-11-15T21:59:57.903Z,8.40
2022-11-15T22:02:24.936Z,8.40
2022-11-15T22:04:51.779Z,8.40
2022-11-15T22:07:18.929Z,8.30
2022-11-15T22:09:47.997Z,8.30
2022-11-15T22:12:19.616Z,8.20
2022-11-15T22:14:46.466Z,8.20
2022-11-15T22:17:15.795Z,8.20
2022-11-15T22:19:52.189Z,8.20
2022-11-15T22:22:22.306Z,8.10
2022-11-15T22:24:49.386Z,8.00
2022-11-15T22:27:18.812Z,8.00
2022-11-15T22:29:45.746Z,8.00
2022-11-15T22:32:12.654Z,8.00
2022-11-15T22:34:39.590Z,8.00
2022-11-15T22:37:19.887Z,8.00
2022-11-15T22:39:47.812Z,8.00
2022-11-15T22:42:18.186Z,8.00
2022-11-15T22:44:47.766Z,8.00
2022-11-15T22:47:14.816Z,8.10
2022-11-15T22:49:44.555Z,8.00
2022-11-15T22:52:14.782Z,8.00
2022-11-15T22:54:41.744Z,8.00
2022-11-15T22:57:08.673Z,7.90
2022-11-15T22:59:37.495Z,8.00
2022-11-15T23:02:07.132Z,7.90
2022-11-15T23:04:36.565Z,7.80
2022-11-15T23:07:03.800Z,7.70
2022-11-15T23:09:30.830Z,7.70
2022-11-15T23:12:18.684Z,7.60
2022-11-15T23:14:48.220Z,7.50
2022-11-15T23:17:16.144Z,7.50
2022-11-15T23:19:43.103Z,7.40
2022-11-15T23:22:28.665Z,7.40
2022-11-15T23:24:59.538Z,7.40
2022-11-15T23:27:28.745Z,7.40
2022-11-15T23:30:14.007Z,7.40
2022-11-15T23:32:59.471Z,7.40
2022-11-15T23:35:27.715Z,7.40
2022-11-15T23:37:54.522Z,7.40
2022-11-15T23:40:23.485Z,7.50
2022-11-15T23:42:50.415Z,7.50
2022-11-15T23:45:19.620Z,7.50
2022-11-15T23:47:48.527Z,7.50
2022-11-15T23:50:15.479Z,7.40
2022-11-15T23:52:42.271Z,7.40
2022-11-15T23:55:09.108Z,7.50
2022-11-15T23:57:35.939Z,7.40
